Time;durP1;ratioP1;P1;durP2;ratioP2;P2;SDS_P1;SDS_P2;PMS_P1;PMS_P2;Temp;Humidity;BMP_temperature;BMP_pressure;BME280_temperature;BME280_humidity;BME280_pressure;Samples;Min_cycle;Max_cycle;Signal;HPM_P1;HPM_P2
2023/10/01 00:01:15;;;;;;;;;13.67;11.33;;;;;;;;5062363;27;45362;-50
2023/10/01 00:03:40;;;;;;;;;14.67;14.67;;;;;;;;5068314;27;45547;-47
2023/10/01 00:06:06;;;;;;;;;14.00;13.00;;;;;;;;5065306;27;45612;-48
2023/10/01 00:08:33;;;;;;;;;18.33;15.33;;;;;;;;5072018;27;45197;-46
2023/10/01 00:10:58;;;;;;;;;13.00;12.33;;;;;;;;5072572;27;45446;-45
2023/10/01 00:13:26;;;;;;;;;11.00;11.00;;;;;;;;5073201;27;45311;-46
2023/10/01 00:15:51;;;;;;;;;11.00;10.33;;;;;;;;5076195;27;45370;-47
2023/10/01 00:18:16;;;;;;;;;19.00;13.00;;;;;;;;5075815;27;45348;-48
2023/10/01 00:20:42;;;;;;;;;12.00;11.00;;;;;;;;5075504;27;45504;-46
2023/10/01 00:23:07;;;;;;;;;14.00;13.00;;;;;;;;5072155;27;45580;-46
2023/10/01 00:25:34;;;;;;;;;19.00;16.33;;;;;;;;5077189;27;45364;-46
2023/10/01 00:28:00;;;;;;;;;18.00;15.33;;;;;;;;5077069;27;45329;-49
2023/10/01 00:30:25;;;;;;;;;18.00;16.33;;;;;;;;5070304;27;45958;-45
2023/10/01 00:32:51;;;;;;;;;21.67;19.00;;;;;;;;5077818;27;45420;-46
2023/10/01 00:35:16;;;;;;;;;20.00;15.67;;;;;;;;5075546;28;45933;-48
2023/10/01 00:37:41;;;;;;;;;22.33;18.00;;;;;;;;5077194;27;45301;-46
2023/10/01 00:40:09;;;;;;;;;18.00;17.67;;;;;;;;5072346;28;46953;-43
2023/10/01 00:42:36;;;;;;;;;15.67;15.67;;;;;;;;5077394;27;45432;-46
2023/10/01 00:45:02;;;;;;;;;23.67;19.33;;;;;;;;5074985;28;45345;-44
2023/10/01 00:47:28;;;;;;;;;23.00;17.33;;;;;;;;5075477;28;45606;-47
2023/10/01 00:49:54;;;;;;;;;20.33;20.00;;;;;;;;5073883;27;45531;-46
2023/10/01 00:52:19;;;;;;;;;18.67;18.67;;;;;;;;5072151;27;45409;-49
2023/10/01 00:54:45;;;;;;;;;24.00;21.67;;;;;;;;5074858;28;45503;-46
2023/10/01 00:57:10;;;;;;;;;27.00;21.33;;;;;;;;5077214;28;45244;-48
2023/10/01 00:59:36;;;;;;;;;25.33;21.33;;;;;;;;5073596;27;46176;-46
2023/10/01 01:02:09;;;;;;;;;24.67;19.67;;;;;;;;5069243;27;45370;-47
2023/10/01 01:04:36;;;;;;;;;25.67;21.67;;;;;;;;5072150;27;45449;-49
2023/10/01 01:07:14;;;;;;;;;20.67;18.00;;;;;;;;5074335;27;45683;-47
2023/10/01 01:09:40;;;;;;;;;26.00;23.00;;;;;;;;5072187;27;46974;-46
2023/10/01 01:12:05;;;;;;;;;22.00;20.33;;;;;;;;5073273;27;45375;-48
2023/10/01 01:14:30;;;;;;;;;22.00;21.33;;;;;;;;5070491;27;45821;-47
2023/10/01 01:16:58;;;;;;;;;20.00;18.33;;;;;;;;5075634;27;46331;-50
2023/10/01 01:19:24;;;;;;;;;25.00;24.00;;;;;;;;5069794;27;46205;-46
2023/10/01 01:21:50;;;;;;;;;14.67;10.33;;;;;;;;5077728;27;45286;-44
2023/10/01 01:24:16;;;;;;;;;20.67;18.67;;;;;;;;5078330;28;45398;-45
2023/10/01 01:26:43;;;;;;;;;23.67;20.00;;;;;;;;5079604;27;45330;-44
2023/10/01 01:29:18;;;;;;;;;21.00;18.67;;;;;;;;5075602;27;46341;-45
2023/10/01 01:31:46;;;;;;;;;24.00;19.67;;;;;;;;5077339;27;45266;-47
2023/10/01 01:34:12;;;;;;;;;20.67;19.33;;;;;;;;5074298;27;45430;-44
2023/10/01 01:36:38;;;;;;;;;21.67;16.67;;;;;;;;5075001;27;45332;-46
2023/10/01 01:39:10;;;;;;;;;20.33;19.67;;;;;;;;5078094;27;46197;-48
2023/10/01 01:41:48;;;;;;;;;21.67;19.33;;;;;;;;5076667;28;45739;-45
2023/10/01 01:44:14;;;;;;;;;23.33;20.67;;;;;;;;5080219;28;45358;-45
2023/10/01 01:46:47;;;;;;;;;17.00;16.33;;;;;;;;5077194;28;45529;-47
2023/10/01 01:49:14;;;;;;;;;19.33;17.67;;;;;;;;5071510;27;47274;-45
2023/10/01 01:51:40;;;;;;;;;25.00;21.00;;;;;;;;5077099;27;45488;-44
2023/10/01 01:54:06;;;;;;;;;20.67;18.33;;;;;;;;5076733;27;45549;-45
2023/10/01 01:56:39;;;;;;;;;22.00;20.00;;;;;;;;5082310;27;45592;-44
2023/10/01 01:59:13;;;;;;;;;19.67;18.33;;;;;;;;5074913;27;45425;-44
2023/10/01 02:01:38;;;;;;;;;18.00;17.33;;;;;;;;5076707;27;45743;-45
2023/10/01 02:04:04;;;;;;;;;16.00;16.00;;;;;;;;5072875;27;45619;-46
2023/10/01 02:06:31;;;;;;;;;17.67;17.67;;;;;;;;5072028;27;45566;-48
2023/10/01 02:08:59;;;;;;;;;18.33;17.33;;;;;;;;5075348;27;46054;-49
2023/10/01 02:11:25;;;;;;;;;19.00;15.00;;;;;;;;5077689;27;45361;-44
2023/10/01 02:13:51;;;;;;;;;20.33;18.33;;;;;;;;5074703;27;45431;-46
2023/10/01 02:24:45;;;;;;;;;17.67;14.67;;;;;;;;5044079;27;45627;-43
2023/10/01 02:27:12;;;;;;;;;17.67;14.67;;;;;;;;5073277;27;45470;-45
2023/10/01 02:29:45;;;;;;;;;16.67;13.33;;;;;;;;5070831;27;45449;-48
2023/10/01 02:32:14;;;;;;;;;18.33;17.00;;;;;;;;5071045;27;45405;-49
2023/10/01 02:34:40;;;;;;;;;15.33;14.00;;;;;;;;5076700;27;45632;-49
2023/10/01 02:37:07;;;;;;;;;17.67;17.33;;;;;;;;5075330;27;45369;-47
2023/10/01 02:39:32;;;;;;;;;19.67;16.00;;;;;;;;5071815;27;46242;-47
2023/10/01 02:42:09;;;;;;;;;19.33;16.67;;;;;;;;5078873;27;45364;-46
2023/10/01 02:44:39;;;;;;;;;17.33;13.67;;;;;;;;5073392;27;45382;-46
2023/10/01 02:47:18;;;;;;;;;20.33;16.33;;;;;;;;5077534;27;45439;-46
2023/10/01 02:49:49;;;;;;;;;20.33;16.33;;;;;;;;5077366;27;47247;-45
2023/10/01 02:52:17;;;;;;;;;15.67;14.67;;;;;;;;5073156;27;45430;-45
2023/10/01 02:54:43;;;;;;;;;17.33;15.67;;;;;;;;5078836;27;45495;-45
2023/10/01 02:57:23;;;;;;;;;16.33;14.00;;;;;;;;5070718;27;45425;-46
2023/10/01 03:02:38;;;;;;;;;18.33;14.33;;;;;;;;5065956;27;45243;-44
2023/10/01 03:05:06;;;;;;;;;16.00;15.67;;;;;;;;5077685;27;45491;-46
2023/10/01 03:07:38;;;;;;;;;17.00;16.33;;;;;;;;5075304;27;45264;-49
2023/10/01 03:10:15;;;;;;;;;16.33;14.33;;;;;;;;5079169;27;46359;-49
2023/10/01 03:12:41;;;;;;;;;18.67;14.33;;;;;;;;5078074;27;45417;-46
2023/10/01 03:17:39;;;;;;;;;17.00;15.67;;;;;;;;5077336;27;45627;-46
2023/10/01 03:23:06;;;;;;;;;18.00;12.67;;;;;;;;5043071;27;45475;-48
2023/10/01 03:25:42;;;;;;;;;15.33;12.67;;;;;;;;5075998;27;45321;-47
2023/10/01 03:28:11;;;;;;;;;15.67;13.33;;;;;;;;5073675;27;45485;-44
2023/10/01 03:30:39;;;;;;;;;14.33;12.33;;;;;;;;5076690;27;45452;-44
2023/10/01 03:33:08;;;;;;;;;15.33;12.33;;;;;;;;5075078;27;45376;-43
2023/10/01 03:35:36;;;;;;;;;16.00;14.67;;;;;;;;5076234;27;45769;-46
2023/10/01 03:38:14;;;;;;;;;16.00;14.67;;;;;;;;5081597;27;45632;-44
2023/10/01 03:43:37;;;;;;;;;13.33;11.00;;;;;;;;5074175;27;45326;-49
2023/10/01 03:46:19;;;;;;;;;15.33;14.00;;;;;;;;5086068;27;45313;-46
2023/10/01 03:48:57;;;;;;;;;17.00;15.67;;;;;;;;5083629;27;45484;-44
2023/10/01 03:51:29;;;;;;;;;14.00;12.33;;;;;;;;5078081;27;47289;-47
2023/10/01 03:54:05;;;;;;;;;19.00;15.33;;;;;;;;5085894;27;45463;-48
2023/10/01 03:56:32;;;;;;;;;13.00;13.00;;;;;;;;5079443;27;45382;-45
2023/10/01 03:58:58;;;;;;;;;15.33;13.67;;;;;;;;5077406;27;45995;-47
2023/10/01 04:01:33;;;;;;;;;15.50;15.50;;;;;;;;5083515;27;46315;-46
2023/10/01 04:04:00;;;;;;;;;16.67;14.33;;;;;;;;5085641;27;45267;-45
2023/10/01 04:06:25;;;;;;;;;15.67;14.33;;;;;;;;5079608;27;45404;-46
2023/10/01 04:08:55;;;;;;;;;15.00;12.00;;;;;;;;5074646;27;45320;-44
2023/10/01 04:11:41;;;;;;;;;16.67;15.67;;;;;;;;5072649;27;45417;-47
2023/10/01 04:14:10;;;;;;;;;14.33;13.67;;;;;;;;5069850;28;45525;-45
2023/10/01 04:16:35;;;;;;;;;14.33;12.00;;;;;;;;5065981;28;45308;-46
2023/10/01 04:19:00;;;;;;;;;17.33;15.00;;;;;;;;5079060;27;45603;-46
2023/10/01 04:21:25;;;;;;;;;17.00;13.00;;;;;;;;5078460;28;46114;-45
2023/10/01 04:23:50;;;;;;;;;15.67;13.00;;;;;;;;5077125;28;45467;-46
2023/10/01 04:26:17;;;;;;;;;13.33;12.67;;;;;;;;5079129;28;45208;-47
2023/10/01 04:28:54;;;;;;;;;15.00;14.00;;;;;;;;5075081;28;45509;-46
2023/10/01 04:31:42;;;;;;;;;14.33;13.67;;;;;;;;5070834;28;47188;-45
2023/10/01 04:34:05;;;;;;;;;11.33;11.33;;;;;;;;5068750;28;46915;-46
2023/10/01 04:36:32;;;;;;;;;12.00;11.67;;;;;;;;5072831;28;45352;-44
2023/10/01 04:39:00;;;;;;;;;13.67;13.67;;;;;;;;5077366;27;45428;-45
2023/10/01 04:41:25;;;;;;;;;14.33;14.33;;;;;;;;5078337;28;46982;-48
2023/10/01 04:43:59;;;;;;;;;18.67;12.33;;;;;;;;5078345;28;45239;-48
2023/10/01 04:46:25;;;;;;;;;14.00;13.67;;;;;;;;5078331;28;45394;-45
2023/10/01 04:48:51;;;;;;;;;13.00;13.00;;;;;;;;5077470;28;45527;-46
2023/10/01 04:51:17;;;;;;;;;16.00;13.33;;;;;;;;5067047;28;45951;-45
2023/10/01 04:53:46;;;;;;;;;14.00;13.00;;;;;;;;5069455;28;45392;-45
2023/10/01 04:56:20;;;;;;;;;14.33;12.33;;;;;;;;5079489;28;45341;-45
2023/10/01 04:58:46;;;;;;;;;14.67;13.00;;;;;;;;5073075;27;46806;-45
2023/10/01 05:01:11;;;;;;;;;15.00;12.67;;;;;;;;5071619;27;46219;-44
2023/10/01 05:03:40;;;;;;;;;14.67;14.00;;;;;;;;5081104;27;45451;-45
2023/10/01 05:06:09;;;;;;;;;13.67;12.33;;;;;;;;5083049;27;45358;-44
2023/10/01 05:08:38;;;;;;;;;15.00;11.33;;;;;;;;5076992;27;45764;-45
2023/10/01 05:11:11;;;;;;;;;14.33;12.00;;;;;;;;5083126;27;45459;-47
2023/10/01 05:13:39;;;;;;;;;15.00;13.67;;;;;;;;5079975;27;45483;-46
2023/10/01 05:16:06;;;;;;;;;14.00;11.33;;;;;;;;5083315;27;45426;-44
2023/10/01 05:18:33;;;;;;;;;10.33;10.00;;;;;;;;5080494;27;45472;-46
2023/10/01 05:20:58;;;;;;;;;9.00;8.00;;;;;;;;5080884;27;46989;-46
2023/10/01 05:23:24;;;;;;;;;14.67;11.67;;;;;;;;5079465;27;45468;-47
2023/10/01 05:25:50;;;;;;;;;13.33;11.33;;;;;;;;5078940;27;45351;-45
2023/10/01 05:28:31;;;;;;;;;15.33;14.33;;;;;;;;5076637;27;45599;-48
2023/10/01 05:30:58;;;;;;;;;19.00;12.00;;;;;;;;5074728;27;47142;-45
2023/10/01 05:33:24;;;;;;;;;16.33;10.67;;;;;;;;5081070;27;45290;-44
2023/10/01 05:35:53;;;;;;;;;7.33;7.00;;;;;;;;5081261;27;45472;-47
2023/10/01 05:38:19;;;;;;;;;14.00;11.00;;;;;;;;5080571;27;45406;-44
2023/10/01 05:40:44;;;;;;;;;14.67;14.00;;;;;;;;5084384;27;46596;-44
2023/10/01 05:43:15;;;;;;;;;13.33;10.33;;;;;;;;5078231;27;45354;-43
2023/10/01 05:45:50;;;;;;;;;12.00;11.33;;;;;;;;5087095;27;45384;-44
2023/10/01 05:48:19;;;;;;;;;15.33;14.00;;;;;;;;5072094;27;45533;-45
2023/10/01 05:50:45;;;;;;;;;13.00;11.33;;;;;;;;5076362;27;46861;-44
2023/10/01 05:53:10;;;;;;;;;12.00;10.33;;;;;;;;5077179;27;45481;-45
2023/10/01 05:55:37;;;;;;;;;11.67;9.33;;;;;;;;5079452;27;45854;-47
2023/10/01 05:58:19;;;;;;;;;11.67;11.33;;;;;;;;5079415;27;45453;-45
2023/10/01 06:00:53;;;;;;;;;13.67;13.33;;;;;;;;5077695;27;47015;-45
2023/10/01 06:03:19;;;;;;;;;13.67;13.33;;;;;;;;5077843;27;45516;-45
2023/10/01 06:05:50;;;;;;;;;12.00;10.67;;;;;;;;5079453;27;45975;-44
2023/10/01 06:08:24;;;;;;;;;12.67;12.67;;;;;;;;5075200;27;46899;-45
2023/10/01 06:10:59;;;;;;;;;15.33;13.00;;;;;;;;5077562;27;47397;-44
2023/10/01 06:13:30;;;;;;;;;13.67;11.67;;;;;;;;5076970;27;45657;-44
2023/10/01 06:15:56;;;;;;;;;15.00;11.00;;;;;;;;5072969;27;46305;-46
2023/10/01 06:18:22;;;;;;;;;12.33;12.33;;;;;;;;5077699;27;46237;-45
2023/10/01 06:20:48;;;;;;;;;17.33;12.67;;;;;;;;5077162;27;45442;-45
2023/10/01 06:23:13;;;;;;;;;13.33;11.33;;;;;;;;5078925;28;45454;-45
2023/10/01 06:25:40;;;;;;;;;17.00;14.33;;;;;;;;5080379;28;45409;-46
2023/10/01 06:28:09;;;;;;;;;15.00;15.00;;;;;;;;5078458;27;45559;-48
2023/10/01 06:30:35;;;;;;;;;16.00;15.00;;;;;;;;5079203;27;45886;-46
2023/10/01 06:33:00;;;;;;;;;15.33;13.00;;;;;;;;5078013;27;45313;-46
2023/10/01 06:35:26;;;;;;;;;15.67;13.00;;;;;;;;5075209;27;45445;-48
2023/10/01 06:37:52;;;;;;;;;20.33;15.00;;;;;;;;5075991;27;45266;-50
2023/10/01 06:40:32;;;;;;;;;14.67;14.33;;;;;;;;5078347;27;46293;-47
2023/10/01 06:43:00;;;;;;;;;16.67;14.00;;;;;;;;5075611;27;46023;-46
2023/10/01 06:45:42;;;;;;;;;16.33;13.00;;;;;;;;5065428;27;45564;-45
2023/10/01 06:48:14;;;;;;;;;17.00;14.67;;;;;;;;5075071;27;45455;-45
2023/10/01 06:50:40;;;;;;;;;15.33;13.00;;;;;;;;5071218;27;46315;-48
2023/10/01 06:53:05;;;;;;;;;14.67;13.33;;;;;;;;5045141;27;46474;-46
2023/10/01 06:55:32;;;;;;;;;16.33;13.67;;;;;;;;5068579;27;45972;-48
2023/10/01 06:58:00;;;;;;;;;16.33;14.67;;;;;;;;5076874;27;45417;-45
2023/10/01 07:00:30;;;;;;;;;13.67;13.33;;;;;;;;5078145;27;47184;-45
2023/10/01 07:03:13;;;;;;;;;21.33;15.67;;;;;;;;5070997;27;45590;-47
2023/10/01 07:05:39;;;;;;;;;14.67;13.67;;;;;;;;5074586;28;45546;-47
2023/10/01 07:08:04;;;;;;;;;17.67;16.33;;;;;;;;5075268;27;45551;-45
2023/10/01 07:10:31;;;;;;;;;15.67;15.00;;;;;;;;5080926;27;46994;-45
2023/10/01 07:13:04;;;;;;;;;16.33;13.67;;;;;;;;5078547;27;45468;-45
2023/10/01 07:15:32;;;;;;;;;16.00;13.67;;;;;;;;5074104;27;45471;-48
2023/10/01 07:17:58;;;;;;;;;17.00;14.67;;;;;;;;5071863;27;47191;-46
2023/10/01 07:20:24;;;;;;;;;21.00;13.33;;;;;;;;5073259;27;46882;-45
2023/10/01 07:22:50;;;;;;;;;17.67;16.00;;;;;;;;5077068;27;45475;-44
2023/10/01 07:27:59;;;;;;;;;20.00;16.00;;;;;;;;5078649;27;45528;-48
2023/10/01 07:30:39;;;;;;;;;16.00;13.67;;;;;;;;5074687;27;46103;-45
2023/10/01 07:33:05;;;;;;;;;17.00;15.67;;;;;;;;5071552;27;45382;-46
2023/10/01 07:35:30;;;;;;;;;15.67;15.67;;;;;;;;5074465;27;45484;-48
2023/10/01 07:37:56;;;;;;;;;11.00;8.33;;;;;;;;5084048;27;45416;-47
2023/10/01 07:40:23;;;;;;;;;16.00;14.00;;;;;;;;5080796;27;46216;-48
2023/10/01 07:42:49;;;;;;;;;16.33;15.67;;;;;;;;5079101;27;45297;-46
2023/10/01 07:45:16;;;;;;;;;15.67;14.33;;;;;;;;5071026;27;45453;-44
2023/10/01 07:47:45;;;;;;;;;18.33;15.67;;;;;;;;5075876;28;45572;-46
2023/10/01 07:50:13;;;;;;;;;18.00;16.33;;;;;;;;5072695;27;46241;-46
2023/10/01 07:52:41;;;;;;;;;15.33;15.33;;;;;;;;5076453;27;45873;-46
2023/10/01 07:57:53;;;;;;;;;18.33;14.67;;;;;;;;5077285;28;45885;-46
2023/10/01 08:00:29;;;;;;;;;17.67;14.00;;;;;;;;5075471;27;46055;-48
2023/10/01 08:05:39;;;;;;;;;15.33;13.33;;;;;;;;5075260;27;45462;-49
2023/10/01 08:08:09;;;;;;;;;13.67;12.33;;;;;;;;5067008;27;45142;-44
2023/10/01 08:10:37;;;;;;;;;12.33;11.67;;;;;;;;5073889;27;45666;-44
2023/10/01 08:13:06;;;;;;;;;13.00;11.67;;;;;;;;5076043;28;45489;-44
2023/10/01 08:15:32;;;;;;;;;17.00;11.67;;;;;;;;5072035;27;45486;-46
2023/10/01 08:18:19;;;;;;;;;12.00;10.67;;;;;;;;5074849;27;45439;-44
2023/10/01 08:20:58;;;;;;;;;14.67;11.33;;;;;;;;5074406;27;45910;-46
2023/10/01 08:23:27;;;;;;;;;13.67;10.33;;;;;;;;5064532;27;45603;-46
2023/10/01 08:25:54;;;;;;;;;12.33;11.67;;;;;;;;5070947;27;45462;-45
2023/10/01 08:30:49;;;;;;;;;9.33;9.00;;;;;;;;5072370;27;45861;-48
2023/10/01 08:33:24;;;;;;;;;15.33;10.00;;;;;;;;5074076;27;45311;-45
2023/10/01 08:36:12;;;;;;;;;14.33;14.33;;;;;;;;5069341;27;45593;-47
2023/10/01 08:38:38;;;;;;;;;13.67;10.33;;;;;;;;5075299;27;45350;-45
2023/10/01 08:41:05;;;;;;;;;12.67;9.00;;;;;;;;5077174;27;45551;-47
2023/10/01 08:43:31;;;;;;;;;11.33;9.00;;;;;;;;5050160;27;46417;-46
2023/10/01 08:46:00;;;;;;;;;16.00;12.33;;;;;;;;5066512;27;45776;-46
2023/10/01 08:48:35;;;;;;;;;12.00;10.33;;;;;;;;5074089;27;45511;-45
2023/10/01 08:51:08;;;;;;;;;16.33;12.00;;;;;;;;5072091;27;46198;-46
2023/10/01 08:53:36;;;;;;;;;10.33;10.33;;;;;;;;5070595;27;45578;-45
2023/10/01 08:56:04;;;;;;;;;10.67;9.67;;;;;;;;5075234;27;45527;-48
2023/10/01 08:58:41;;;;;;;;;17.67;11.00;;;;;;;;5075718;27;45946;-45
2023/10/01 09:01:13;;;;;;;;;14.00;9.00;;;;;;;;5071728;27;46246;-48
2023/10/01 09:03:39;;;;;;;;;12.33;9.67;;;;;;;;5076336;27;46626;-45
2023/10/01 09:06:24;;;;;;;;;13.67;7.00;;;;;;;;5070522;27;45364;-47
2023/10/01 09:08:54;;;;;;;;;14.33;9.00;;;;;;;;5071051;28;45669;-47
2023/10/01 09:11:19;;;;;;;;;7.00;7.00;;;;;;;;5074164;27;46340;-46
2023/10/01 09:13:44;;;;;;;;;12.67;8.00;;;;;;;;5074662;28;45460;-46
2023/10/01 09:16:10;;;;;;;;;9.75;9.25;;;;;;;;5063253;27;45870;-46
2023/10/01 09:18:37;;;;;;;;;10.00;8.67;;;;;;;;5075101;28;45601;-48
2023/10/01 09:21:06;;;;;;;;;8.00;7.00;;;;;;;;5073543;28;46349;-47
2023/10/01 09:23:54;;;;;;;;;8.00;7.00;;;;;;;;5075511;28;45519;-45
2023/10/01 09:26:37;;;;;;;;;7.00;7.00;;;;;;;;5075142;27;45349;-46
2023/10/01 09:29:12;;;;;;;;;8.33;6.33;;;;;;;;5065838;28;45454;-48
2023/10/01 09:31:59;;;;;;;;;4.75;4.25;;;;;;;;5075810;28;47117;-47
2023/10/01 09:34:31;;;;;;;;;9.00;6.67;;;;;;;;5068466;28;45433;-47
2023/10/01 09:36:57;;;;;;;;;6.00;5.50;;;;;;;;5066530;28;45501;-45
2023/10/01 09:39:34;;;;;;;;;6.75;5.00;;;;;;;;5075619;28;45521;-50
2023/10/01 09:42:02;;;;;;;;;3.75;3.75;;;;;;;;5078713;28;45672;-48
2023/10/01 09:44:28;;;;;;;;;7.75;6.75;;;;;;;;5064271;27;45563;-45
2023/10/01 09:47:07;;;;;;;;;10.00;8.00;;;;;;;;5074348;27;45614;-48
2023/10/01 09:49:32;;;;;;;;;7.00;6.50;;;;;;;;5079822;27;45453;-48
2023/10/01 09:52:01;;;;;;;;;7.50;7.25;;;;;;;;5071993;27;45420;-46
2023/10/01 09:54:28;;;;;;;;;7.75;7.00;;;;;;;;5079123;27;45472;-45
2023/10/01 09:56:55;;;;;;;;;8.75;7.00;;;;;;;;5078842;27;45555;-45
2023/10/01 09:59:20;;;;;;;;;7.00;5.00;;;;;;;;5079050;27;45435;-49
2023/10/01 10:01:45;;;;;;;;;7.25;7.25;;;;;;;;5070547;27;46813;-45
2023/10/01 10:04:11;;;;;;;;;9.00;6.00;;;;;;;;5083229;27;45580;-45
2023/10/01 10:06:41;;;;;;;;;8.00;6.25;;;;;;;;5074911;27;45830;-46
2023/10/01 10:09:25;;;;;;;;;4.00;4.00;;;;;;;;5090917;27;45582;-49
2023/10/01 10:11:50;;;;;;;;;8.25;5.50;;;;;;;;5077793;27;46267;-48
2023/10/01 10:14:25;;;;;;;;;8.75;7.00;;;;;;;;5090643;27;45444;-46
2023/10/01 10:16:58;;;;;;;;;9.50;7.00;;;;;;;;5091670;27;45538;-48
2023/10/01 10:19:23;;;;;;;;;9.75;7.25;;;;;;;;5074168;27;46946;-49
2023/10/01 10:22:05;;;;;;;;;7.50;5.75;;;;;;;;5078934;27;45872;-49
2023/10/01 10:24:46;;;;;;;;;6.25;6.25;;;;;;;;5085409;27;45641;-50
2023/10/01 10:27:33;;;;;;;;;7.00;7.00;;;;;;;;5081749;27;45367;-46
2023/10/01 10:30:01;;;;;;;;;6.25;6.25;;;;;;;;5076988;27;45629;-49
2023/10/01 10:32:27;;;;;;;;;6.75;5.75;;;;;;;;5077119;27;47118;-47
2023/10/01 10:35:03;;;;;;;;;5.25;4.25;;;;;;;;5077503;27;45470;-46
2023/10/01 10:37:34;;;;;;;;;6.00;6.00;;;;;;;;5077257;27;45495;-46
2023/10/01 10:40:04;;;;;;;;;8.00;8.00;;;;;;;;5074007;27;45531;-48
2023/10/01 10:42:30;;;;;;;;;7.00;4.75;;;;;;;;5078701;27;46327;-45
2023/10/01 10:45:19;;;;;;;;;5.25;4.00;;;;;;;;5075967;27;45917;-47
2023/10/01 10:48:03;;;;;;;;;5.25;5.25;;;;;;;;5076470;27;46831;-45
2023/10/01 10:50:39;;;;;;;;;4.25;3.25;;;;;;;;5077268;27;45373;-49
2023/10/01 10:53:14;;;;;;;;;9.50;6.00;;;;;;;;5073843;27;46327;-47
2023/10/01 10:55:39;;;;;;;;;7.75;6.50;;;;;;;;5077622;27;45464;-47
2023/10/01 10:58:12;;;;;;;;;6.50;6.25;;;;;;;;5072519;27;46001;-45
2023/10/01 11:00:40;;;;;;;;;10.25;9.75;;;;;;;;5079201;27;45844;-47
2023/10/01 11:03:10;;;;;;;;;5.00;5.00;;;;;;;;5079401;28;45406;-47
2023/10/01 11:05:49;;;;;;;;;8.75;6.00;;;;;;;;5077579;27;45258;-50
2023/10/01 11:08:25;;;;;;;;;6.25;5.00;;;;;;;;5077030;28;45480;-44
2023/10/01 11:10:51;;;;;;;;;7.00;6.75;;;;;;;;5080381;27;45263;-49
2023/10/01 11:13:27;;;;;;;;;8.00;6.50;;;;;;;;5065628;28;47013;-45
2023/10/01 11:15:52;;;;;;;;;6.25;4.50;;;;;;;;5078326;28;45338;-46
2023/10/01 11:18:23;;;;;;;;;4.00;4.00;;;;;;;;5076847;27;45614;-45
2023/10/01 11:21:00;;;;;;;;;6.25;4.75;;;;;;;;5079530;28;45484;-46
2023/10/01 11:23:26;;;;;;;;;5.00;4.00;;;;;;;;5078692;27;46829;-45
2023/10/01 11:25:51;;;;;;;;;6.50;6.50;;;;;;;;5078429;28;45444;-50
2023/10/01 11:28:17;;;;;;;;;5.50;3.00;;;;;;;;5076174;28;45347;-48
2023/10/01 11:30:42;;;;;;;;;6.25;5.25;;;;;;;;5076276;28;45560;-46
2023/10/01 11:38:32;;;;;;;;;5.50;5.50;;;;;;;;5075147;28;45562;-49
2023/10/01 11:41:09;;;;;;;;;6.25;5.00;;;;;;;;5074843;28;45584;-48
2023/10/01 11:43:42;;;;;;;;;10.25;7.75;;;;;;;;5078494;27;46523;-47
2023/10/01 11:46:23;;;;;;;;;7.75;6.50;;;;;;;;5077366;27;45802;-46
2023/10/01 11:49:05;;;;;;;;;6.75;5.00;;;;;;;;5075960;28;45427;-45
2023/10/01 11:51:35;;;;;;;;;9.00;8.25;;;;;;;;5074227;28;45451;-47
2023/10/01 11:54:09;;;;;;;;;6.75;6.75;;;;;;;;5078036;28;46151;-46
2023/10/01 11:56:41;;;;;;;;;4.00;4.00;;;;;;;;5074241;28;45271;-47
2023/10/01 11:59:08;;;;;;;;;8.50;6.00;;;;;;;;5075644;28;45525;-49
2023/10/01 12:01:45;;;;;;;;;7.00;6.25;;;;;;;;5078884;27;45589;-49
2023/10/01 12:04:11;;;;;;;;;9.75;7.50;;;;;;;;5076301;28;47021;-49
2023/10/01 12:06:38;;;;;;;;;6.75;5.00;;;;;;;;5073758;27;45500;-46
2023/10/01 12:09:04;;;;;;;;;8.75;6.75;;;;;;;;5074903;28;46747;-51
2023/10/01 12:11:30;;;;;;;;;7.00;5.25;;;;;;;;5072683;27;46033;-47
2023/10/01 12:14:06;;;;;;;;;7.25;7.25;;;;;;;;5074117;28;45359;-46
2023/10/01 12:16:32;;;;;;;;;8.00;6.50;;;;;;;;5072911;28;45404;-51
2023/10/01 12:19:22;;;;;;;;;8.25;6.00;;;;;;;;5071580;28;45469;-49
2023/10/01 12:21:45;;;;;;;;;9.25;5.75;;;;;;;;5071144;28;45432;-47
2023/10/01 12:24:13;;;;;;;;;6.25;6.25;;;;;;;;5071682;28;46317;-46
2023/10/01 12:26:43;;;;;;;;;8.00;7.00;;;;;;;;5075043;28;45635;-48
2023/10/01 12:29:12;;;;;;;;;5.50;5.50;;;;;;;;5073048;27;47165;-47
2023/10/01 12:31:40;;;;;;;;;3.50;3.25;;;;;;;;5074197;27;45333;-48
2023/10/01 12:34:05;;;;;;;;;7.50;6.50;;;;;;;;5070387;28;48129;-47
2023/10/01 12:36:31;;;;;;;;;5.25;5.25;;;;;;;;5072224;27;45478;-49
2023/10/01 12:41:48;;;;;;;;;1.00;1.00;;;;;;;;5072706;28;45504;-47
2023/10/01 12:44:25;;;;;;;;;8.00;6.25;;;;;;;;5072701;28;46335;-46
2023/10/01 12:47:00;;;;;;;;;6.75;6.25;;;;;;;;5071746;27;45554;-48
2023/10/01 12:49:25;;;;;;;;;10.75;6.75;;;;;;;;5068770;27;45536;-48
2023/10/01 12:51:53;;;;;;;;;5.25;5.25;;;;;;;;5071702;27;45461;-50
2023/10/01 12:54:19;;;;;;;;;7.50;5.25;;;;;;;;5065538;27;46411;-47
2023/10/01 12:56:48;;;;;;;;;6.50;6.00;;;;;;;;5067758;27;45490;-47
2023/10/01 12:59:18;;;;;;;;;6.25;5.00;;;;;;;;5073139;28;45523;-51
2023/10/01 13:01:50;;;;;;;;;8.25;6.00;;;;;;;;5071950;27;45231;-48
2023/10/01 13:04:25;;;;;;;;;6.00;6.00;;;;;;;;5079935;27;48335;-47
2023/10/01 13:06:51;;;;;;;;;6.25;5.25;;;;;;;;5072768;28;46946;-48
2023/10/01 13:12:17;;;;;;;;;6.75;6.75;;;;;;;;5072152;28;45503;-48
2023/10/01 13:15:14;;;;;;;;;11.75;7.00;;;;;;;;5072332;28;47522;-49
2023/10/01 13:17:35;;;;;;;;;7.00;6.75;;;;;;;;5074432;28;45469;-47
2023/10/01 13:20:18;;;;;;;;;7.25;7.25;;;;;;;;5073924;28;45338;-45
2023/10/01 13:22:48;;;;;;;;;6.50;6.50;;;;;;;;5071110;28;45477;-51
2023/10/01 13:25:18;;;;;;;;;7.00;6.75;;;;;;;;5075506;28;47184;-47
2023/10/01 13:27:46;;;;;;;;;6.50;6.50;;;;;;;;5075494;27;45421;-47
2023/10/01 13:30:22;;;;;;;;;4.75;4.75;;;;;;;;5075892;27;45832;-45
2023/10/01 13:35:35;;;;;;;;;5.00;5.00;;;;;;;;5075562;28;47604;-50
2023/10/01 13:38:26;;;;;;;;;6.25;6.25;;;;;;;;5074899;28;45454;-50
2023/10/01 14:10:53;;;;;;;;;4.75;4.75;;;;;;;;5078401;28;45994;-48
2023/10/01 14:13:29;;;;;;;;;6.25;4.75;;;;;;;;5077455;27;45462;-46
2023/10/01 14:16:11;;;;;;;;;5.25;5.25;;;;;;;;5076701;27;45517;-48
2023/10/01 14:18:36;;;;;;;;;7.25;5.50;;;;;;;;5078785;28;46211;-49
2023/10/01 14:21:12;;;;;;;;;8.75;6.25;;;;;;;;5074697;28;45259;-47
2023/10/01 14:23:42;;;;;;;;;8.00;5.00;;;;;;;;5078950;27;45440;-47
2023/10/01 14:26:11;;;;;;;;;8.75;5.00;;;;;;;;5078608;28;45541;-48
2023/10/01 14:28:37;;;;;;;;;6.25;5.25;;;;;;;;5070864;28;46173;-47
2023/10/01 14:31:08;;;;;;;;;8.25;5.00;;;;;;;;5079187;27;45445;-49
2023/10/01 14:33:34;;;;;;;;;6.00;6.00;;;;;;;;5085067;27;45638;-51
2023/10/01 14:36:03;;;;;;;;;10.75;6.50;;;;;;;;5085811;27;45624;-48
2023/10/01 14:38:37;;;;;;;;;7.75;5.50;;;;;;;;5082099;27;46382;-48
2023/10/01 14:41:15;;;;;;;;;7.75;6.00;;;;;;;;5079791;27;45307;-48
2023/10/01 14:43:48;;;;;;;;;9.25;5.75;;;;;;;;5085365;27;45417;-47
2023/10/01 14:46:13;;;;;;;;;6.00;5.00;;;;;;;;5084157;27;45643;-48
2023/10/01 14:48:39;;;;;;;;;7.50;6.25;;;;;;;;5084579;27;45428;-50
2023/10/01 14:51:05;;;;;;;;;4.25;4.25;;;;;;;;5082395;27;45272;-50
2023/10/01 14:53:36;;;;;;;;;5.75;5.75;;;;;;;;5078050;27;45493;-46
2023/10/01 14:56:04;;;;;;;;;6.50;6.00;;;;;;;;5076817;27;45678;-48
2023/10/01 14:58:30;;;;;;;;;6.75;5.25;;;;;;;;5082989;27;46994;-46
2023/10/01 15:00:57;;;;;;;;;1.75;1.75;;;;;;;;5075932;27;45407;-46
2023/10/01 15:03:23;;;;;;;;;44.00;30.33;;;;;;;;5082679;27;45498;-47
2023/10/01 15:05:51;;;;;;;;;8.50;7.25;;;;;;;;5076194;27;46366;-49
2023/10/01 15:08:17;;;;;;;;;5.25;5.25;;;;;;;;5083531;27;46199;-49
2023/10/01 15:10:49;;;;;;;;;5.00;5.00;;;;;;;;5084678;27;45854;-46
2023/10/01 15:13:15;;;;;;;;;7.25;4.00;;;;;;;;5079150;27;45422;-48
2023/10/01 15:15:44;;;;;;;;;8.00;6.50;;;;;;;;5077388;27;45568;-47
2023/10/01 15:18:17;;;;;;;;;9.00;6.50;;;;;;;;5073619;28;48083;-49
2023/10/01 15:20:52;;;;;;;;;7.00;4.25;;;;;;;;5073715;27;45350;-49
2023/10/01 15:23:17;;;;;;;;;5.00;5.00;;;;;;;;5078473;27;45404;-46
2023/10/01 15:25:43;;;;;;;;;11.75;11.50;;;;;;;;5073645;28;45642;-48
2023/10/01 15:28:09;;;;;;;;;8.25;7.50;;;;;;;;5085822;27;45326;-48
2023/10/01 15:30:38;;;;;;;;;45.67;37.33;;;;;;;;5072167;27;45468;-48
2023/10/01 15:33:09;;;;;;;;;10.25;7.50;;;;;;;;5086502;27;45476;-48
2023/10/01 15:35:43;;;;;;;;;8.75;7.00;;;;;;;;5081251;27;45429;-47
2023/10/01 15:38:08;;;;;;;;;6.75;4.50;;;;;;;;5089720;27;46005;-49
2023/10/01 15:40:33;;;;;;;;;8.00;7.75;;;;;;;;5074879;28;45551;-50
2023/10/01 15:42:59;;;;;;;;;7.75;5.50;;;;;;;;5080314;27;45303;-50
2023/10/01 15:45:25;;;;;;;;;9.00;6.25;;;;;;;;5074632;27;45721;-49
2023/10/01 15:47:54;;;;;;;;;4.75;4.50;;;;;;;;5079051;27;46277;-51
2023/10/01 15:50:21;;;;;;;;;7.00;4.75;;;;;;;;5078918;27;45765;-50
2023/10/01 15:52:46;;;;;;;;;4.00;4.00;;;;;;;;5076699;27;45342;-47
2023/10/01 15:55:13;;;;;;;;;4.50;4.50;;;;;;;;5083856;27;45429;-50
2023/10/01 15:57:38;;;;;;;;;7.50;7.50;;;;;;;;5086824;27;46411;-48